createdAt,value
2023-01-09T00:05:20.966Z,2.70
2023-01-09T00:07:50.187Z,2.10
2023-01-09T00:10:18.835Z,3.00
2023-01-09T00:12:47.275Z,2.80
2023-01-09T00:15:15.799Z,3.30
2023-01-09T00:17:44.405Z,3.00
2023-01-09T00:20:13.884Z,3.90
2023-01-09T00:22:42.741Z,3.20
2023-01-09T00:25:11.352Z,3.10
2023-01-09T00:27:39.854Z,2.60
2023-01-09T00:30:10.265Z,3.20
2023-01-09T00:32:38.746Z,3.50
2023-01-09T00:35:12.038Z,2.60
2023-01-09T00:37:40.567Z,2.90
2023-01-09T00:40:10.444Z,3.50
2023-01-09T00:42:39.017Z,3.40
2023-01-09T00:45:18.465Z,3.00
2023-01-09T00:47:52.074Z,3.60
2023-01-09T00:50:27.185Z,2.80
2023-01-09T00:53:00.968Z,3.00
2023-01-09T00:55:29.632Z,3.00
2023-01-09T00:57:58.102Z,3.00
2023-01-09T01:00:26.669Z,2.40
2023-01-09T01:02:55.244Z,3.60
2023-01-09T01:05:42.426Z,3.20
2023-01-09T01:08:18.775Z,3.30
2023-01-09T01:10:49.237Z,3.70
2023-01-09T01:13:17.801Z,2.30
2023-01-09T01:15:47.420Z,3.80
2023-01-09T01:18:15.922Z,3.60
2023-01-09T01:20:45.506Z,4.00
2023-01-09T01:23:13.986Z,3.90
2023-01-09T01:25:43.044Z,3.70
2023-01-09T01:28:11.632Z,3.80
2023-01-09T01:30:42.549Z,3.90
2023-01-09T01:33:11.922Z,3.20
2023-01-09T01:35:40.407Z,4.00
2023-01-09T01:38:08.862Z,3.50
2023-01-09T01:40:38.483Z,4.30
2023-01-09T01:43:07.072Z,3.70
2023-01-09T01:45:36.181Z,3.80
2023-01-09T01:48:15.301Z,4.10
2023-01-09T01:50:48.519Z,3.70
2023-01-09T01:53:18.040Z,4.30
2023-01-09T01:56:11.095Z,3.20
2023-01-09T01:58:48.787Z,4.10
2023-01-09T02:01:19.147Z,4.70
2023-01-09T02:03:48.557Z,3.60
2023-01-09T02:06:17.323Z,4.00
2023-01-09T02:08:46.947Z,4.70
2023-01-09T02:11:18.768Z,4.40
2023-01-09T02:13:48.343Z,5.10
2023-01-09T02:16:30.509Z,4.90
2023-01-09T02:19:26.235Z,5.20
2023-01-09T02:22:22.559Z,5.70
2023-01-09T02:25:20.593Z,3.70
2023-01-09T02:28:45.470Z,4.50
2023-01-09T02:31:34.746Z,7.30
2023-01-09T02:34:36.805Z,5.60
2023-01-09T02:37:13.169Z,3.40
2023-01-09T02:40:21.118Z,4.50
2023-01-09T02:42:51.111Z,4.70
2023-01-09T02:45:19.751Z,5.40
2023-01-09T02:47:48.234Z,5.40
2023-01-09T02:51:01.663Z,5.00
2023-01-09T02:53:50.344Z,5.10
2023-01-09T02:56:58.557Z,5.40
2023-01-09T03:00:00.299Z,3.60
2023-01-09T03:02:57.958Z,4.90
2023-01-09T03:05:57.496Z,4.60
2023-01-09T03:08:36.998Z,5.30
2023-01-09T03:11:08.157Z,8.20
2023-01-09T03:13:57.815Z,6.20
2023-01-09T03:16:33.551Z,7.50
2023-01-09T03:19:04.539Z,7.00
2023-01-09T03:21:34.581Z,6.30
2023-01-09T03:24:03.789Z,7.00
2023-01-09T03:26:32.522Z,7.30
2023-01-09T03:29:01.105Z,5.50
2023-01-09T03:31:30.019Z,6.60
2023-01-09T03:33:58.505Z,7.50
2023-01-09T03:36:27.235Z,4.00
2023-01-09T03:38:55.832Z,6.80
2023-01-09T03:41:24.412Z,5.50
2023-01-09T03:43:52.955Z,6.80
2023-01-09T03:46:21.585Z,8.00
2023-01-09T03:48:50.080Z,7.40
2023-01-09T03:51:18.492Z,6.90
2023-01-09T03:53:46.969Z,6.40
2023-01-09T03:56:15.620Z,7.70
2023-01-09T03:58:44.145Z,8.80
2023-01-09T04:01:13.196Z,7.40
2023-01-09T04:03:42.071Z,8.70
2023-01-09T04:06:10.523Z,9.80
2023-01-09T04:08:39.042Z,6.70
2023-01-09T04:11:08.191Z,6.40
2023-01-09T04:13:36.606Z,6.30
2023-01-09T04:16:05.740Z,6.30
2023-01-09T04:18:34.251Z,6.50
2023-01-09T04:21:02.715Z,9.20
2023-01-09T04:23:31.265Z,5.10
2023-01-09T04:25:59.715Z,4.90
2023-01-09T04:28:28.159Z,6.20
2023-01-09T04:30:56.703Z,5.70
2023-01-09T04:33:25.223Z,4.70
2023-01-09T04:35:53.702Z,7.40
2023-01-09T04:38:22.289Z,6.20
2023-01-09T04:40:50.779Z,6.30
2023-01-09T04:43:19.384Z,10.00
2023-01-09T04:45:47.984Z,7.20
2023-01-09T04:48:16.971Z,4.90
2023-01-09T04:50:45.576Z,6.70
2023-01-09T04:53:14.201Z,4.70
2023-01-09T04:55:43.288Z,4.70
2023-01-09T04:58:11.731Z,9.00
2023-01-09T05:00:40.266Z,4.30
2023-01-09T05:03:08.721Z,7.10
2023-01-09T05:05:37.234Z,6.10
2023-01-09T05:08:06.220Z,10.30
2023-01-09T05:10:34.723Z,5.80
2023-01-09T05:13:03.182Z,5.00
2023-01-09T05:15:31.663Z,9.20
2023-01-09T05:18:00.235Z,5.40
2023-01-09T05:20:28.769Z,4.10
2023-01-09T05:22:57.219Z,7.60
2023-01-09T05:25:25.726Z,5.60
2023-01-09T05:27:54.225Z,4.20
2023-01-09T05:30:22.690Z,7.00
2023-01-09T05:32:51.177Z,6.30
2023-01-09T05:35:20.438Z,6.20
2023-01-09T05:37:49.007Z,5.80
2023-01-09T05:40:17.953Z,7.50
2023-01-09T05:42:46.419Z,4.20
2023-01-09T05:45:14.983Z,4.50
2023-01-09T05:47:45.459Z,6.90
2023-01-09T05:50:15.304Z,8.00
2023-01-09T05:52:43.836Z,6.50
2023-01-09T05:55:13.606Z,4.60
2023-01-09T05:57:42.428Z,6.50
2023-01-09T06:00:11.871Z,5.00
2023-01-09T06:02:40.466Z,4.40
2023-01-09T06:05:09.883Z,5.40
2023-01-09T06:07:40.756Z,5.30
2023-01-09T06:10:15.069Z,4.90
2023-01-09T06:15:18.052Z,9.00
2023-01-09T06:17:47.002Z,4.00
2023-01-09T06:20:15.680Z,8.10
2023-01-09T06:22:45.551Z,4.50
2023-01-09T06:25:14.144Z,5.20
2023-01-09T06:27:42.588Z,4.80
2023-01-09T06:30:11.938Z,8.20
2023-01-09T06:32:40.602Z,7.90
2023-01-09T06:35:09.967Z,5.80
2023-01-09T06:37:38.465Z,7.60
2023-01-09T06:40:07.848Z,5.00
2023-01-09T06:42:36.382Z,7.90
2023-01-09T06:45:05.614Z,5.00
2023-01-09T06:47:34.146Z,8.70
2023-01-09T06:50:02.693Z,8.50
2023-01-09T06:52:31.239Z,7.00
2023-01-09T06:54:59.796Z,7.30
2023-01-09T06:57:28.326Z,5.70
2023-01-09T06:59:56.823Z,8.80
2023-01-09T07:02:25.315Z,5.80
2023-01-09T07:04:53.819Z,5.30
2023-01-09T07:07:22.721Z,3.00
2023-01-09T07:09:51.397Z,3.80
2023-01-09T07:12:20.037Z,6.30
2023-01-09T07:14:48.504Z,5.10
2023-01-09T07:17:16.992Z,8.10
2023-01-09T07:19:45.460Z,6.50
2023-01-09T07:22:14.045Z,5.40
2023-01-09T07:24:44.527Z,5.20
2023-01-09T07:27:13.020Z,7.40
2023-01-09T07:29:41.483Z,7.20
2023-01-09T07:32:10.079Z,10.30
2023-01-09T07:34:38.638Z,8.50
2023-01-09T07:37:07.207Z,7.90
2023-01-09T07:39:35.809Z,5.90
2023-01-09T07:42:04.588Z,9.10
2023-01-09T07:44:33.722Z,8.60
2023-01-09T07:47:02.342Z,6.30
2023-01-09T07:49:30.843Z,8.00
2023-01-09T07:52:00.016Z,7.90
2023-01-09T07:54:28.684Z,4.80
2023-01-09T07:56:57.343Z,8.00
2023-01-09T07:59:27.377Z,8.00
2023-01-09T08:01:57.013Z,4.00
2023-01-09T08:04:25.536Z,9.30
2023-01-09T08:06:54.247Z,9.90
2023-01-09T08:09:22.884Z,8.60
2023-01-09T08:11:51.580Z,5.70
2023-01-09T08:14:20.255Z,6.40
2023-01-09T08:16:48.859Z,5.10
2023-01-09T08:19:17.401Z,7.30
2023-01-09T08:21:45.895Z,5.70
2023-01-09T08:24:14.416Z,3.70
2023-01-09T08:26:42.953Z,5.50
2023-01-09T08:29:11.702Z,4.40
2023-01-09T08:31:40.779Z,6.40
2023-01-09T08:34:09.596Z,6.00
2023-01-09T08:36:38.082Z,4.00
2023-01-09T08:39:06.629Z,7.00
2023-01-09T08:41:53.518Z,5.40
2023-01-09T08:44:40.685Z,3.40
2023-01-09T08:47:09.559Z,6.40
2023-01-09T08:49:39.241Z,5.30
2023-01-09T08:52:08.123Z,5.90
2023-01-09T08:54:37.140Z,2.70
2023-01-09T08:57:07.191Z,5.60
2023-01-09T08:59:35.779Z,5.60
2023-01-09T09:02:04.328Z,5.40
2023-01-09T09:04:32.811Z,2.70
2023-01-09T09:18:03.353Z,5.00
2023-01-09T09:20:36.714Z,5.70
2023-01-09T09:23:06.770Z,3.70
2023-01-09T09:25:38.572Z,5.10
2023-01-09T09:28:07.880Z,3.50
2023-01-09T09:30:39.008Z,4.00
2023-01-09T09:33:07.511Z,5.60
2023-01-09T09:35:36.889Z,3.60
2023-01-09T09:38:06.181Z,3.80
2023-01-09T09:41:08.197Z,4.90
2023-01-09T09:44:26.035Z,2.60
2023-01-09T09:47:06.717Z,2.80
2023-01-09T09:50:16.637Z,3.70
2023-01-09T09:53:21.231Z,2.60
2023-01-09T09:55:51.169Z,3.50
2023-01-09T09:58:39.344Z,2.80
2023-01-09T10:01:11.683Z,3.00
2023-01-09T10:04:00.915Z,4.50
2023-01-09T10:06:44.704Z,2.10
2023-01-09T10:09:28.434Z,2.50
2023-01-09T10:12:18.607Z,3.00
2023-01-09T10:14:47.252Z,3.40
2023-01-09T10:17:30.956Z,2.00
2023-01-09T10:21:00.322Z,3.50
2023-01-09T10:24:10.802Z,2.60
2023-01-09T10:26:48.765Z,3.80
2023-01-09T10:29:36.834Z,2.00
2023-01-09T10:32:27.594Z,1.50
2023-01-09T10:35:47.083Z,3.10
2023-01-09T10:38:24.675Z,3.20
2023-01-09T10:41:14.427Z,3.80
2023-01-09T10:43:53.707Z,2.70
2023-01-09T10:46:37.564Z,2.60
2023-01-09T10:49:17.356Z,2.40
2023-01-09T10:51:50.635Z,4.50
2023-01-09T10:54:23.703Z,1.90
2023-01-09T10:57:02.657Z,3.30
2023-01-09T10:59:31.267Z,4.00
2023-01-09T11:02:00.230Z,4.00
2023-01-09T11:04:37.349Z,2.20
2023-01-09T11:07:42.351Z,2.50
2023-01-09T11:10:13.976Z,4.10
2023-01-09T11:12:42.941Z,4.30
2023-01-09T11:15:17.266Z,3.50
2023-01-09T11:17:47.481Z,3.20
2023-01-09T11:20:17.745Z,3.60
2023-01-09T11:22:58.464Z,3.20
2023-01-09T11:25:29.439Z,2.80
2023-01-09T11:28:07.076Z,2.30
2023-01-09T11:31:02.950Z,3.00
2023-01-09T11:33:38.034Z,3.50
2023-01-09T11:36:13.739Z,4.00
2023-01-09T11:38:50.475Z,3.90
2023-01-09T11:41:25.923Z,3.50
2023-01-09T11:43:58.833Z,4.50
2023-01-09T11:46:34.572Z,2.70
2023-01-09T11:49:21.061Z,3.60
2023-01-09T11:52:26.825Z,2.40
2023-01-09T11:55:06.793Z,2.80
2023-01-09T11:57:35.433Z,3.30
2023-01-09T12:00:25.612Z,4.40
2023-01-09T12:03:29.268Z,4.00
2023-01-09T12:06:26.122Z,3.50
2023-01-09T12:09:01.526Z,2.90
2023-01-09T12:11:57.000Z,5.00
2023-01-09T12:15:15.021Z,4.20
2023-01-09T12:18:23.857Z,3.10
2023-01-09T12:21:20.318Z,5.10
2023-01-09T12:24:19.756Z,2.40
2023-01-09T12:27:20.403Z,2.60
2023-01-09T12:30:30.621Z,5.10
2023-01-09T12:33:30.986Z,3.50
2023-01-09T12:36:34.973Z,2.20
2023-01-09T12:39:45.573Z,4.90
2023-01-09T12:42:26.201Z,4.90
2023-01-09T12:45:28.244Z,4.40
2023-01-09T12:48:27.211Z,4.40
2023-01-09T12:51:40.555Z,4.50
2023-01-09T12:54:23.959Z,2.20
2023-01-09T12:57:01.482Z,5.30
2023-01-09T12:59:56.628Z,4.10
2023-01-09T13:02:51.661Z,2.50
2023-01-09T13:05:32.072Z,3.30
2023-01-09T13:08:14.941Z,2.80
2023-01-09T13:13:39.226Z,2.60
2023-01-09T13:16:16.614Z,4.40
2023-01-09T13:18:56.320Z,3.70
2023-01-09T13:21:28.179Z,2.50
2023-01-09T13:24:04.219Z,2.50
2023-01-09T13:27:16.416Z,3.00
2023-01-09T13:29:50.737Z,2.70
2023-01-09T13:32:31.648Z,5.30
2023-01-09T13:35:01.717Z,3.50
2023-01-09T13:37:37.301Z,2.00
2023-01-09T13:40:26.885Z,4.60
2023-01-09T13:43:05.370Z,2.30
2023-01-09T13:45:39.959Z,3.00
2023-01-09T13:48:42.174Z,2.00
2023-01-09T13:51:44.470Z,3.80
2023-01-09T13:54:12.986Z,4.50
2023-01-09T13:57:19.334Z,2.90
2023-01-09T13:59:48.632Z,2.50
2023-01-09T14:02:35.626Z,2.80
2023-01-09T14:05:10.656Z,2.40
2023-01-09T14:07:51.459Z,2.50
2023-01-09T14:10:24.516Z,3.60
2023-01-09T14:12:57.067Z,3.40
2023-01-09T14:15:45.023Z,4.30
2023-01-09T14:18:35.889Z,2.80
2023-01-09T14:21:11.489Z,2.50
2023-01-09T14:24:07.215Z,2.60
2023-01-09T14:26:56.716Z,2.20
2023-01-09T14:29:29.530Z,2.50
2023-01-09T14:32:23.259Z,3.60
2023-01-09T14:35:15.493Z,1.70
2023-01-09T14:38:00.036Z,1.50
2023-01-09T14:43:12.318Z,3.40
2023-01-09T14:45:47.976Z,3.20
2023-01-09T14:48:18.479Z,2.00
2023-01-09T14:50:56.043Z,4.50
2023-01-09T14:53:28.922Z,3.90
2023-01-09T14:56:00.391Z,2.30
2023-01-09T14:58:38.172Z,2.30
2023-01-09T15:01:12.606Z,3.10
2023-01-09T15:04:13.831Z,2.00
2023-01-09T15:06:43.637Z,3.30
2023-01-09T15:09:36.844Z,2.70
2023-01-09T15:12:10.335Z,1.70
2023-01-09T15:14:46.073Z,2.90
2023-01-09T15:17:43.533Z,2.30
2023-01-09T15:20:29.303Z,2.40
2023-01-09T15:23:04.416Z,3.10
2023-01-09T15:25:38.816Z,3.70
2023-01-09T15:28:31.049Z,2.50
2023-01-09T15:31:11.889Z,4.10
2023-01-09T15:33:41.723Z,2.40
2023-01-09T15:36:24.256Z,3.20
2023-01-09T15:38:54.520Z,3.00
2023-01-09T15:41:47.978Z,3.00
2023-01-09T15:44:30.402Z,2.50
2023-01-09T15:47:01.215Z,2.80
2023-01-09T15:49:30.331Z,1.90
2023-01-09T15:51:59.957Z,3.50
2023-01-09T15:54:32.513Z,2.00
2023-01-09T15:57:35.586Z,1.80
2023-01-09T16:00:28.929Z,2.40
2023-01-09T16:03:09.983Z,3.60
2023-01-09T16:05:49.448Z,3.70
2023-01-09T16:08:31.583Z,2.10
2023-01-09T16:11:05.490Z,2.20
2023-01-09T16:13:43.736Z,2.90
2023-01-09T16:16:13.149Z,2.40
2023-01-09T16:18:53.697Z,3.30
2023-01-09T16:21:35.665Z,1.90
2023-01-09T16:24:26.988Z,2.50
2023-01-09T16:27:30.942Z,3.00
2023-01-09T16:30:01.068Z,3.70
2023-01-09T16:32:33.010Z,2.50
2023-01-09T16:35:15.841Z,2.90
2023-01-09T16:37:44.449Z,2.30
2023-01-09T16:40:18.801Z,3.00
2023-01-09T16:43:01.482Z,3.40
2023-01-09T16:45:39.055Z,5.20
2023-01-09T16:48:13.957Z,2.30
2023-01-09T16:50:42.942Z,2.70
2023-01-09T16:53:19.717Z,2.60
2023-01-09T16:55:49.329Z,2.30
2023-01-09T16:58:35.477Z,2.60
2023-01-09T17:01:04.121Z,3.90
2023-01-09T17:03:33.208Z,3.10
2023-01-09T17:06:03.788Z,2.30
2023-01-09T17:08:36.067Z,2.20
2023-01-09T17:11:05.277Z,4.20
2023-01-09T17:13:33.749Z,2.60
2023-01-09T17:16:02.857Z,2.40
2023-01-09T17:18:31.323Z,1.50
2023-01-09T17:20:59.882Z,1.60
2023-01-09T17:23:29.003Z,3.20
2023-01-09T17:26:18.583Z,2.50
2023-01-09T17:28:50.745Z,3.70
2023-01-09T17:31:19.576Z,2.40
2023-01-09T17:33:48.350Z,3.00
2023-01-09T17:36:23.227Z,2.40
2023-01-09T17:38:55.127Z,1.60
2023-01-09T17:41:26.443Z,2.60
2023-01-09T17:43:56.140Z,2.20
2023-01-09T17:46:43.310Z,2.70
2023-01-09T17:49:18.955Z,3.40
2023-01-09T17:51:47.657Z,2.50
2023-01-09T17:54:16.186Z,2.80
2023-01-09T17:56:51.162Z,4.00
2023-01-09T17:59:19.762Z,4.30
2023-01-09T18:01:48.458Z,2.40
2023-01-09T18:04:17.067Z,1.90
2023-01-09T18:06:45.758Z,2.60
2023-01-09T18:09:17.371Z,3.30
2023-01-09T18:11:46.135Z,3.50
2023-01-09T18:14:15.538Z,4.00
2023-01-09T18:16:45.521Z,2.10
2023-01-09T18:19:14.196Z,2.40
2023-01-09T18:21:42.703Z,2.60
2023-01-09T18:24:11.183Z,2.80
2023-01-09T18:26:39.683Z,4.00
2023-01-09T18:29:09.425Z,2.30
2023-01-09T18:31:38.686Z,3.70
2023-01-09T18:34:07.734Z,3.00
2023-01-09T18:36:36.510Z,2.60
2023-01-09T18:39:07.235Z,4.20
2023-01-09T18:41:36.213Z,1.70
2023-01-09T18:44:04.796Z,4.50
2023-01-09T18:46:33.448Z,2.70
2023-01-09T19:00:20.798Z,2.60
2023-01-09T19:02:48.048Z,2.90
2023-01-09T19:05:15.562Z,4.40
2023-01-09T19:07:42.737Z,2.40
2023-01-09T19:10:10.976Z,2.60
2023-01-09T19:12:38.091Z,1.50
2023-01-09T19:15:11.048Z,2.70
2023-01-09T19:17:39.229Z,2.30
2023-01-09T19:20:07.817Z,4.20
2023-01-09T19:22:34.972Z,2.50
2023-01-09T19:25:02.059Z,2.20
2023-01-09T19:27:29.945Z,3.00
2023-01-09T19:29:57.112Z,2.50
2023-01-09T19:32:24.213Z,2.60
2023-01-09T19:34:51.369Z,3.50
2023-01-09T19:37:18.589Z,3.10
2023-01-09T19:39:46.367Z,3.40
2023-01-09T19:42:14.041Z,1.50
2023-01-09T19:44:43.672Z,1.80
2023-01-09T19:47:11.447Z,2.10
2023-01-09T19:49:38.824Z,3.90
2023-01-09T19:52:06.028Z,2.90
2023-01-09T19:54:33.166Z,2.40
2023-01-09T19:57:00.273Z,2.50
2023-01-09T19:59:27.385Z,2.10
2023-01-09T20:01:54.950Z,2.40
2023-01-09T20:04:22.893Z,1.60
2023-01-09T20:06:50.072Z,1.90
2023-01-09T20:09:26.821Z,1.60
2023-01-09T20:11:54.023Z,1.60
2023-01-09T20:14:22.003Z,1.60
2023-01-09T20:16:50.351Z,1.40
2023-01-09T20:19:17.657Z,1.10
2023-01-09T20:21:44.822Z,1.50
2023-01-09T20:24:14.725Z,3.10
2023-01-09T20:26:41.864Z,1.90
2023-01-09T20:29:09.075Z,3.70
2023-01-09T20:31:36.576Z,1.40
2023-01-09T20:34:04.327Z,2.20
2023-01-09T20:36:32.151Z,2.00
2023-01-09T20:39:03.069Z,1.50
2023-01-09T20:41:30.981Z,2.40
2023-01-09T20:44:06.390Z,1.70
2023-01-09T20:46:37.626Z,1.50
2023-01-09T20:49:07.008Z,2.30
2023-01-09T20:51:36.239Z,2.30
2023-01-09T20:54:03.592Z,1.70
2023-01-09T20:56:31.545Z,1.50
2023-01-09T20:59:00.225Z,2.30
2023-01-09T21:01:28.388Z,1.70
2023-01-09T21:03:56.412Z,1.50
2023-01-09T21:06:25.565Z,1.60
2023-01-09T21:08:52.845Z,1.20
2023-01-09T21:11:21.324Z,1.80
2023-01-09T21:13:49.432Z,2.20
2023-01-09T21:16:20.741Z,1.50
2023-01-09T21:18:48.308Z,1.90
2023-01-09T21:21:26.555Z,2.20
2023-01-09T21:23:57.430Z,1.60
2023-01-09T21:26:28.393Z,1.60
2023-01-09T21:28:58.023Z,1.30
2023-01-09T21:31:33.437Z,3.00
2023-01-09T21:34:04.384Z,2.00
2023-01-09T21:36:32.127Z,1.60
2023-01-09T21:38:59.647Z,1.50
2023-01-09T21:41:44.994Z,2.20
2023-01-09T21:44:31.326Z,1.80
2023-01-09T21:47:02.817Z,2.20
2023-01-09T21:49:34.523Z,1.20
2023-01-09T21:52:05.837Z,1.20
2023-01-09T21:54:33.428Z,1.80
2023-01-09T21:57:01.521Z,1.30
2023-01-09T21:59:28.792Z,1.20
2023-01-09T22:01:55.963Z,1.80
2023-01-09T22:04:26.183Z,1.30
2023-01-09T22:06:54.578Z,2.60
2023-01-09T22:09:22.136Z,1.50
2023-01-09T22:11:49.311Z,2.50
2023-01-09T22:14:18.311Z,1.90
2023-01-09T22:16:46.172Z,0.80
2023-01-09T22:19:17.399Z,1.80
2023-01-09T22:21:45.118Z,1.50
2023-01-09T22:24:14.934Z,2.60
2023-01-09T22:26:43.028Z,2.00
2023-01-09T22:29:10.144Z,1.30
2023-01-09T22:31:39.263Z,2.60
2023-01-09T22:34:06.416Z,1.40
2023-01-09T22:36:33.616Z,2.60
2023-01-09T22:39:00.799Z,0.90
2023-01-09T22:41:29.905Z,2.70
2023-01-09T22:43:57.906Z,0.90
2023-01-09T22:46:25.687Z,0.90
2023-01-09T22:48:52.843Z,2.40
2023-01-09T22:51:21.422Z,1.90
2023-01-09T22:53:49.628Z,1.60
2023-01-09T22:56:19.988Z,1.60
2023-01-09T22:58:52.217Z,2.30
2023-01-09T23:01:20.846Z,2.90
2023-01-09T23:03:48.210Z,2.60
2023-01-09T23:06:21.459Z,2.40
2023-01-09T23:08:50.376Z,2.90
2023-01-09T23:11:46.321Z,2.90
2023-01-09T23:14:13.868Z,2.40
2023-01-09T23:16:41.488Z,1.80
2023-01-09T23:19:12.244Z,1.00
2023-01-09T23:21:39.704Z,1.50
2023-01-09T23:24:07.539Z,1.30
2023-01-09T23:26:36.544Z,1.40
2023-01-09T23:29:06.959Z,2.10
2023-01-09T23:31:36.493Z,1.40
2023-01-09T23:34:07.420Z,1.60
2023-01-09T23:36:35.581Z,1.80
2023-01-09T23:39:03.675Z,1.30
2023-01-09T23:42:29.391Z,1.80
2023-01-09T23:44:56.552Z,1.30
2023-01-09T23:47:23.672Z,1.90
2023-01-09T23:49:50.992Z,1.60
2023-01-09T23:52:18.176Z,1.50
2023-01-09T23:54:45.354Z,1.50
2023-01-09T23:57:12.521Z,2.20
2023-01-09T23:59:39.532Z,1.60
